sensor_id;sensor_type;location;lat;lon;timestamp;pressure;altitude;pressure_sealevel;temperature;humidity
7832;BME280;3961;42.058;25.586;2023-05-31T00:02:19;64202.47;;;17.53;100.00
7832;BME280;3961;42.058;25.586;2023-05-31T00:04:44;64182.56;;;17.40;100.00
7832;BME280;3961;42.058;25.586;2023-05-31T00:07:10;64171.25;;;17.28;100.00
7832;BME280;3961;42.058;25.586;2023-05-31T00:09:35;64182.31;;;17.38;100.00
7832;BME280;3961;42.058;25.586;2023-05-31T00:12:01;64160.00;;;17.16;100.00
7832;BME280;3961;42.058;25.586;2023-05-31T00:14:26;64150.09;;;17.07;100.00
7832;BME280;3961;42.058;25.586;2023-05-31T00:16:52;64166.41;;;17.22;100.00
7832;BME280;3961;42.058;25.586;2023-05-31T00:19:18;64170.44;;;17.25;100.00
7832;BME280;3961;42.058;25.586;2023-05-31T00:21:44;64170.91;;;17.30;100.00
7832;BME280;3961;42.058;25.586;2023-05-31T00:24:11;64159.28;;;17.20;100.00
7832;BME280;3961;42.058;25.586;2023-05-31T00:26:37;64170.34;;;17.30;100.00
7832;BME280;3961;42.058;25.586;2023-05-31T00:29:02;64185.81;;;17.41;100.00
7832;BME280;3961;42.058;25.586;2023-05-31T00:31:28;64181.50;;;17.35;100.00
7832;BME280;3961;42.058;25.586;2023-05-31T00:33:53;64176.28;;;17.30;100.00
7832;BME280;3961;42.058;25.586;2023-05-31T00:36:19;64192.00;;;17.44;100.00
7832;BME280;3961;42.058;25.586;2023-05-31T00:38:44;64178.03;;;17.32;100.00
7832;BME280;3961;42.058;25.586;2023-05-31T00:41:10;64172.19;;;17.27;100.00
7832;BME280;3961;42.058;25.586;2023-05-31T00:43:36;64152.06;;;17.11;100.00
7832;BME280;3961;42.058;25.586;2023-05-31T00:46:01;64154.41;;;17.13;100.00
7832;BME280;3961;42.058;25.586;2023-05-31T00:48:28;64124.53;;;16.85;100.00
7832;BME280;3961;42.058;25.586;2023-05-31T00:50:54;64164.28;;;17.22;100.00
7832;BME280;3961;42.058;25.586;2023-05-31T00:53:21;64173.13;;;17.25;100.00
7832;BME280;3961;42.058;25.586;2023-05-31T00:55:48;64167.53;;;17.23;100.00
7832;BME280;3961;42.058;25.586;2023-05-31T00:58:15;64164.28;;;17.22;100.00
7832;BME280;3961;42.058;25.586;2023-05-31T01:00:42;64148.34;;;17.06;100.00
7832;BME280;3961;42.058;25.586;2023-05-31T01:03:07;64128.59;;;16.89;100.00
7832;BME280;3961;42.058;25.586;2023-05-31T01:05:34;64143.13;;;17.01;100.00
7832;BME280;3961;42.058;25.586;2023-05-31T01:08:00;64139.28;;;17.00;100.00
7832;BME280;3961;42.058;25.586;2023-05-31T01:10:28;64135.78;;;16.97;100.00
7832;BME280;3961;42.058;25.586;2023-05-31T01:15:43;64141.97;;;17.00;100.00
7832;BME280;3961;42.058;25.586;2023-05-31T01:18:29;64132.28;;;16.94;100.00
7832;BME280;3961;42.058;25.586;2023-05-31T01:20:58;64124.28;;;16.83;100.00
7832;BME280;3961;42.058;25.586;2023-05-31T01:28:53;64142.19;;;17.03;100.00
7832;BME280;3961;42.058;25.586;2023-05-31T01:31:21;64141.38;;;17.00;100.00
7832;BME280;3961;42.058;25.586;2023-05-31T01:33:48;64143.69;;;17.02;100.00
7832;BME280;3961;42.058;25.586;2023-05-31T01:36:15;64126.25;;;16.87;100.00
7832;BME280;3961;42.058;25.586;2023-05-31T01:38:40;64102.63;;;16.68;100.00
7832;BME280;3961;42.058;25.586;2023-05-31T01:41:06;64112.31;;;16.74;100.00
7832;BME280;3961;42.058;25.586;2023-05-31T01:43:34;64106.72;;;16.72;100.00
7832;BME280;3961;42.058;25.586;2023-05-31T01:46:01;64116.97;;;16.78;100.00
7832;BME280;3961;42.058;25.586;2023-05-31T01:48:28;64110.56;;;16.73;100.00
7832;BME280;3961;42.058;25.586;2023-05-31T01:50:55;64105.31;;;16.68;100.00
7832;BME280;3961;42.058;25.586;2023-05-31T01:53:23;64129.38;;;16.92;100.00
7832;BME280;3961;42.058;25.586;2023-05-31T01:55:49;64126.63;;;16.85;100.00
7832;BME280;3961;42.058;25.586;2023-05-31T01:58:16;64122.41;;;16.86;100.00
7832;BME280;3961;42.058;25.586;2023-05-31T02:00:42;64106.47;;;16.69;100.00
7832;BME280;3961;42.058;25.586;2023-05-31T02:03:09;64086.13;;;16.52;100.00
7832;BME280;3961;42.058;25.586;2023-05-31T02:05:34;64101.56;;;16.63;100.00
7832;BME280;3961;42.058;25.586;2023-05-31T02:08:00;64110.31;;;16.70;100.00
7832;BME280;3961;42.058;25.586;2023-05-31T02:10:26;64117.78;;;16.82;100.00
7832;BME280;3961;42.058;25.586;2023-05-31T02:12:51;64106.13;;;16.71;100.00
7832;BME280;3961;42.058;25.586;2023-05-31T02:15:18;64106.13;;;16.71;100.00
7832;BME280;3961;42.058;25.586;2023-05-31T02:17:46;64074.84;;;16.39;100.00
7832;BME280;3961;42.058;25.586;2023-05-31T02:20:13;64073.34;;;16.40;100.00
7832;BME280;3961;42.058;25.586;2023-05-31T02:22:45;64066.22;;;16.39;100.00
7832;BME280;3961;42.058;25.586;2023-05-31T02:25:12;64082.06;;;16.48;100.00
7832;BME280;3961;42.058;25.586;2023-05-31T02:27:39;64077.28;;;16.49;100.00
7832;BME280;3961;42.058;25.586;2023-05-31T02:30:07;64087.88;;;16.53;100.00
7832;BME280;3961;42.058;25.586;2023-05-31T02:32:33;64098.91;;;16.63;100.00
7832;BME280;3961;42.058;25.586;2023-05-31T02:35:04;64097.41;;;16.64;100.00
7832;BME280;3961;42.058;25.586;2023-05-31T02:37:31;64095.75;;;16.58;100.00
7832;BME280;3961;42.058;25.586;2023-05-31T02:39:56;64084.97;;;16.51;100.00
7832;BME280;3961;42.058;25.586;2023-05-31T02:42:22;64084.59;;;16.53;100.00
7832;BME280;3961;42.058;25.586;2023-05-31T02:44:47;64089.25;;;16.57;100.00
7832;BME280;3961;42.058;25.586;2023-05-31T02:47:13;64076.81;;;16.43;100.00
7832;BME280;3961;42.058;25.586;2023-05-31T02:49:38;64086.94;;;16.55;100.00
7832;BME280;3961;42.058;25.586;2023-05-31T02:52:04;64069.03;;;16.34;100.00
7832;BME280;3961;42.058;25.586;2023-05-31T02:54:31;64080.31;;;16.46;100.00
7832;BME280;3961;42.058;25.586;2023-05-31T02:56:56;64098.09;;;16.60;100.00
7832;BME280;3961;42.058;25.586;2023-05-31T02:59:23;64088.31;;;16.58;100.00
7832;BME280;3961;42.058;25.586;2023-05-31T03:01:48;64058.66;;;16.32;100.00
7832;BME280;3961;42.058;25.586;2023-05-31T03:04:14;64053.22;;;16.25;100.00
7832;BME280;3961;42.058;25.586;2023-05-31T03:06:40;64062.84;;;16.31;100.00
7832;BME280;3961;42.058;25.586;2023-05-31T03:09:07;64071.22;;;16.41;100.00
7832;BME280;3961;42.058;25.586;2023-05-31T03:11:33;64047.06;;;16.22;100.00
7832;BME280;3961;42.058;25.586;2023-05-31T03:13:58;64075.44;;;16.40;100.00
7832;BME280;3961;42.058;25.586;2023-05-31T03:16:24;64074.50;;;16.41;100.00
7832;BME280;3961;42.058;25.586;2023-05-31T03:18:50;64081.25;;;16.45;100.00
7832;BME280;3961;42.058;25.586;2023-05-31T03:21:16;64061.69;;;16.30;100.00
7832;BME280;3961;42.058;25.586;2023-05-31T03:23:41;64084.03;;;16.52;100.00
7832;BME280;3961;42.058;25.586;2023-05-31T03:26:07;64103.22;;;16.69;100.00
7832;BME280;3961;42.058;25.586;2023-05-31T03:28:32;64135.78;;;16.97;100.00
7832;BME280;3961;42.058;25.586;2023-05-31T03:30:58;64160.66;;;17.24;100.00
7832;BME280;3961;42.058;25.586;2023-05-31T03:33:23;64170.69;;;17.28;100.00
7832;BME280;3961;42.058;25.586;2023-05-31T03:35:49;64170.22;;;17.23;100.00
7832;BME280;3961;42.058;25.586;2023-05-31T03:38:14;64206.53;;;17.57;100.00
7832;BME280;3961;42.058;25.586;2023-05-31T03:40:40;64204.19;;;17.55;100.00
7832;BME280;3961;42.058;25.586;2023-05-31T03:43:05;64219.25;;;17.72;100.00
7832;BME280;3961;42.058;25.586;2023-05-31T03:45:31;64318.69;;;18.52;100.00
7832;BME280;3961;42.058;25.586;2023-05-31T03:47:56;64419.00;;;19.39;100.00
7832;BME280;3961;42.058;25.586;2023-05-31T03:50:22;64462.03;;;19.82;100.00
7832;BME280;3961;42.058;25.586;2023-05-31T03:52:47;64514.91;;;20.25;100.00
7832;BME280;3961;42.058;25.586;2023-05-31T03:55:13;64683.97;;;21.74;100.00
7832;BME280;3961;42.058;25.586;2023-05-31T03:57:38;64832.59;;;23.03;100.00
7832;BME280;3961;42.058;25.586;2023-05-31T04:00:05;64896.41;;;23.59;100.00
7832;BME280;3961;42.058;25.586;2023-05-31T04:02:31;64879.53;;;23.39;100.00
7832;BME280;3961;42.058;25.586;2023-05-31T04:05:06;64915.72;;;23.75;100.00
7832;BME280;3961;42.058;25.586;2023-05-31T04:07:31;65098.00;;;25.26;100.00
7832;BME280;3961;42.058;25.586;2023-05-31T04:09:58;65143.06;;;25.70;100.00
7832;BME280;3961;42.058;25.586;2023-05-31T04:12:23;65081.81;;;25.15;100.00
7832;BME280;3961;42.058;25.586;2023-05-31T04:14:49;65189.22;;;26.07;95.82
7832;BME280;3961;42.058;25.586;2023-05-31T04:17:15;65113.69;;;25.44;97.75
7832;BME280;3961;42.058;25.586;2023-05-31T04:19:40;65154.44;;;25.82;94.90
7832;BME280;3961;42.058;25.586;2023-05-31T04:22:06;65206.47;;;26.25;94.37
7832;BME280;3961;42.058;25.586;2023-05-31T04:24:32;65233.28;;;26.46;94.25
7832;BME280;3961;42.058;25.586;2023-05-31T04:26:57;65326.94;;;27.29;90.24
7832;BME280;3961;42.058;25.586;2023-05-31T04:29:23;65446.94;;;28.32;87.07
7832;BME280;3961;42.058;25.586;2023-05-31T04:31:51;65486.75;;;28.64;84.83
7832;BME280;3961;42.058;25.586;2023-05-31T04:34:17;65640.50;;;29.97;79.67
7832;BME280;3961;42.058;25.586;2023-05-31T04:36:45;65599.47;;;29.64;78.77
7832;BME280;3961;42.058;25.586;2023-05-31T04:39:15;65615.97;;;29.78;76.53
7832;BME280;3961;42.058;25.586;2023-05-31T04:41:41;65716.44;;;30.67;73.57
7832;BME280;3961;42.058;25.586;2023-05-31T04:44:07;65810.44;;;31.43;72.02
7832;BME280;3961;42.058;25.586;2023-05-31T04:46:32;65661.19;;;30.15;75.15
7832;BME280;3961;42.058;25.586;2023-05-31T04:48:58;65638.97;;;29.98;75.08
7832;BME280;3961;42.058;25.586;2023-05-31T04:51:26;65567.44;;;29.34;78.05
7832;BME280;3961;42.058;25.586;2023-05-31T04:53:52;65480.09;;;28.56;79.54
7832;BME280;3961;42.058;25.586;2023-05-31T04:56:18;65587.28;;;29.49;78.20
7832;BME280;3961;42.058;25.586;2023-05-31T04:58:44;65580.22;;;29.42;77.62
7832;BME280;3961;42.058;25.586;2023-05-31T05:01:09;65647.03;;;30.02;75.91
7832;BME280;3961;42.058;25.586;2023-05-31T05:03:35;65738.44;;;30.81;73.45
7832;BME280;3961;42.058;25.586;2023-05-31T05:06:02;65744.13;;;30.84;73.66
7832;BME280;3961;42.058;25.586;2023-05-31T05:08:37;65758.47;;;30.98;72.22
7832;BME280;3961;42.058;25.586;2023-05-31T05:11:03;65874.19;;;31.98;69.15
7832;BME280;3961;42.058;25.586;2023-05-31T05:13:28;65936.81;;;32.52;68.53
7832;BME280;3961;42.058;25.586;2023-05-31T05:15:54;65811.63;;;31.44;71.43
7832;BME280;3961;42.058;25.586;2023-05-31T05:18:20;65767.34;;;31.06;72.23
7832;BME280;3961;42.058;25.586;2023-05-31T05:20:45;65867.50;;;31.90;69.30
7832;BME280;3961;42.058;25.586;2023-05-31T05:23:11;65821.03;;;31.52;70.00
7832;BME280;3961;42.058;25.586;2023-05-31T05:25:36;65785.63;;;31.22;70.70
7832;BME280;3961;42.058;25.586;2023-05-31T05:28:02;65699.50;;;30.48;74.65
7832;BME280;3961;42.058;25.586;2023-05-31T05:30:28;65739.03;;;30.82;72.00
7832;BME280;3961;42.058;25.586;2023-05-31T05:32:53;65663.53;;;30.17;73.28
7832;BME280;3961;42.058;25.586;2023-05-31T05:35:19;65619.31;;;29.79;74.31
7832;BME280;3961;42.058;25.586;2023-05-31T05:37:45;65586.91;;;29.51;76.56
7832;BME280;3961;42.058;25.586;2023-05-31T05:40:11;65699.69;;;30.50;74.02
7832;BME280;3961;42.058;25.586;2023-05-31T05:42:37;65528.78;;;29.03;78.42
7832;BME280;3961;42.058;25.586;2023-05-31T05:45:05;65550.75;;;29.17;77.35
7832;BME280;3961;42.058;25.586;2023-05-31T05:47:34;65586.31;;;29.50;76.53
7832;BME280;3961;42.058;25.586;2023-05-31T05:50:01;65571.56;;;29.37;76.80
7832;BME280;3961;42.058;25.586;2023-05-31T05:52:27;65628.53;;;29.84;76.46
7832;BME280;3961;42.058;25.586;2023-05-31T05:54:52;65545.28;;;29.17;77.43
7832;BME280;3961;42.058;25.586;2023-05-31T05:57:17;65462.03;;;28.43;79.21
7832;BME280;3961;42.058;25.586;2023-05-31T05:59:44;65426.72;;;28.13;80.65
7832;BME280;3961;42.058;25.586;2023-05-31T06:02:11;65371.41;;;27.65;82.53
7832;BME280;3961;42.058;25.586;2023-05-31T06:04:36;65334.94;;;27.33;83.30
7832;BME280;3961;42.058;25.586;2023-05-31T06:07:02;65282.63;;;26.88;85.91
7832;BME280;3961;42.058;25.586;2023-05-31T06:09:28;65256.97;;;26.68;87.91
7832;BME280;3961;42.058;25.586;2023-05-31T06:11:54;65271.91;;;26.84;87.85
7832;BME280;3961;42.058;25.586;2023-05-31T06:14:19;65282.25;;;26.90;87.94
7832;BME280;3961;42.058;25.586;2023-05-31T06:16:45;65284.25;;;26.94;88.40
7832;BME280;3961;42.058;25.586;2023-05-31T06:19:11;65301.06;;;27.06;86.95
7832;BME280;3961;42.058;25.586;2023-05-31T06:21:36;65300.13;;;27.08;87.98
7832;BME280;3961;42.058;25.586;2023-05-31T06:24:02;65285.19;;;26.93;88.13
7832;BME280;3961;42.058;25.586;2023-05-31T06:26:28;65283.31;;;26.96;87.53
7832;BME280;3961;42.058;25.586;2023-05-31T06:28:53;65300.50;;;27.06;87.19
7832;BME280;3961;42.058;25.586;2023-05-31T06:31:19;65267.94;;;26.75;89.96
7832;BME280;3961;42.058;25.586;2023-05-31T06:33:44;65241.72;;;26.55;90.26
7832;BME280;3961;42.058;25.586;2023-05-31T06:36:10;65229.59;;;26.47;91.25
7832;BME280;3961;42.058;25.586;2023-05-31T06:38:36;65252.88;;;26.65;90.40
7832;BME280;3961;42.058;25.586;2023-05-31T06:41:01;65247.00;;;26.60;90.89
7832;BME280;3961;42.058;25.586;2023-05-31T06:43:27;65285.56;;;26.91;88.54
7832;BME280;3961;42.058;25.586;2023-05-31T06:45:52;65294.03;;;27.00;89.10
7832;BME280;3961;42.058;25.586;2023-05-31T06:48:18;65293.44;;;27.00;88.96
7832;BME280;3961;42.058;25.586;2023-05-31T06:50:43;65307.53;;;27.12;88.51
7832;BME280;3961;42.058;25.586;2023-05-31T06:53:09;65319.47;;;27.18;87.34
7832;BME280;3961;42.058;25.586;2023-05-31T06:55:38;65316.94;;;27.20;87.83
7832;BME280;3961;42.058;25.586;2023-05-31T06:58:04;65284.59;;;26.92;88.36
7832;BME280;3961;42.058;25.586;2023-05-31T07:00:30;65285.56;;;26.91;88.01
7832;BME280;3961;42.058;25.586;2023-05-31T07:02:55;65286.16;;;26.91;89.11
7832;BME280;3961;42.058;25.586;2023-05-31T07:05:21;65318.13;;;27.21;88.75
7832;BME280;3961;42.058;25.586;2023-05-31T07:07:46;65329.09;;;27.28;88.88
7832;BME280;3961;42.058;25.586;2023-05-31T07:10:12;65338.69;;;27.39;87.29
7832;BME280;3961;42.058;25.586;2023-05-31T07:12:38;65367.31;;;27.61;86.37
7832;BME280;3961;42.058;25.586;2023-05-31T07:15:04;65391.00;;;27.77;85.13
7832;BME280;3961;42.058;25.586;2023-05-31T07:17:30;65376.13;;;27.69;86.16
7832;BME280;3961;42.058;25.586;2023-05-31T07:19:56;65369.47;;;27.61;86.49
7832;BME280;3961;42.058;25.586;2023-05-31T07:22:21;65382.38;;;27.72;86.17
7832;BME280;3961;42.058;25.586;2023-05-31T07:24:47;65380.84;;;27.73;87.09
7832;BME280;3961;42.058;25.586;2023-05-31T07:27:13;65409.44;;;27.95;85.26
7832;BME280;3961;42.058;25.586;2023-05-31T07:29:39;65426.13;;;28.12;84.75
7832;BME280;3961;42.058;25.586;2023-05-31T07:32:05;65394.97;;;27.85;86.23
7832;BME280;3961;42.058;25.586;2023-05-31T07:34:31;65397.53;;;27.90;85.92
7832;BME280;3961;42.058;25.586;2023-05-31T07:36:56;65427.31;;;28.13;84.51
7832;BME280;3961;42.058;25.586;2023-05-31T07:39:22;65453.78;;;28.36;82.05
7832;BME280;3961;42.058;25.586;2023-05-31T07:41:48;65438.13;;;28.25;83.64
7832;BME280;3961;42.058;25.586;2023-05-31T07:44:14;65418.25;;;28.03;83.11
7832;BME280;3961;42.058;25.586;2023-05-31T07:46:42;65435.78;;;28.23;83.10
7832;BME280;3961;42.058;25.586;2023-05-31T07:49:08;65427.31;;;28.13;82.59
7832;BME280;3961;42.058;25.586;2023-05-31T07:51:33;65426.13;;;28.12;83.11
7832;BME280;3961;42.058;25.586;2023-05-31T07:53:59;65453.00;;;28.33;83.54
7832;BME280;3961;42.058;25.586;2023-05-31T07:56:24;65424.94;;;28.11;82.90
7832;BME280;3961;42.058;25.586;2023-05-31T07:58:50;65460.28;;;28.41;82.29
7832;BME280;3961;42.058;25.586;2023-05-31T08:01:16;65448.13;;;28.33;82.30
7832;BME280;3961;42.058;25.586;2023-05-31T08:03:42;65472.25;;;28.54;80.68
7832;BME280;3961;42.058;25.586;2023-05-31T08:06:07;65452.25;;;28.37;81.70
7832;BME280;3961;42.058;25.586;2023-05-31T08:08:33;65428.28;;;28.12;82.84
7832;BME280;3961;42.058;25.586;2023-05-31T08:11:00;65444.97;;;28.28;85.55
7832;BME280;3961;42.058;25.586;2023-05-31T08:13:26;65465.94;;;28.44;81.99
7832;BME280;3961;42.058;25.586;2023-05-31T08:15:52;65503.25;;;28.79;78.69
7832;BME280;3961;42.058;25.586;2023-05-31T08:18:18;65530.34;;;29.02;78.01
7832;BME280;3961;42.058;25.586;2023-05-31T08:20:43;65508.56;;;28.83;80.01
7832;BME280;3961;42.058;25.586;2023-05-31T08:23:19;65500.50;;;28.79;79.87
7832;BME280;3961;42.058;25.586;2023-05-31T08:25:46;65516.81;;;28.90;78.73
7832;BME280;3961;42.058;25.586;2023-05-31T08:28:12;65517.41;;;28.91;78.79
7832;BME280;3961;42.058;25.586;2023-05-31T08:37:40;65547.63;;;29.19;77.20
7832;BME280;3961;42.058;25.586;2023-05-31T08:40:06;65518.56;;;28.92;78.50
7832;BME280;3961;42.058;25.586;2023-05-31T08:42:42;65537.41;;;29.08;77.45
7832;BME280;3961;42.058;25.586;2023-05-31T08:45:11;65526.22;;;28.98;79.77
7832;BME280;3961;42.058;25.586;2023-05-31T08:47:43;65550.59;;;29.22;76.09
7832;BME280;3961;42.058;25.586;2023-05-31T08:50:10;65555.09;;;29.23;78.02
7832;BME280;3961;42.058;25.586;2023-05-31T08:52:36;65577.84;;;29.40;76.10
7832;BME280;3961;42.058;25.586;2023-05-31T08:55:04;65551.72;;;29.16;79.33
7832;BME280;3961;42.058;25.586;2023-05-31T08:57:30;65548.44;;;29.22;76.92
7832;BME280;3961;42.058;25.586;2023-05-31T08:59:57;65572.31;;;29.33;80.66
7832;BME280;3961;42.058;25.586;2023-05-31T09:02:24;65572.91;;;29.34;76.96
7832;BME280;3961;42.058;25.586;2023-05-31T09:04:50;65566.84;;;29.33;78.34
7832;BME280;3961;42.058;25.586;2023-05-31T09:07:17;65569.41;;;29.38;77.48
7832;BME280;3961;42.058;25.586;2023-05-31T09:09:43;65571.56;;;29.37;77.19
7832;BME280;3961;42.058;25.586;2023-05-31T09:12:08;65582.41;;;29.49;77.81
7832;BME280;3961;42.058;25.586;2023-05-31T09:14:34;65581.97;;;29.44;77.46
7832;BME280;3961;42.058;25.586;2023-05-31T09:17:00;65600.66;;;29.65;74.54
7832;BME280;3961;42.058;25.586;2023-05-31T09:19:26;65566.63;;;29.31;72.10
7832;BME280;3961;42.058;25.586;2023-05-31T09:21:52;65462.63;;;28.43;71.49
7832;BME280;3961;42.058;25.586;2023-05-31T09:24:18;65404.16;;;27.91;73.41
7832;BME280;3961;42.058;25.586;2023-05-31T09:26:49;65382.81;;;27.77;73.32
7832;BME280;3961;42.058;25.586;2023-05-31T09:29:15;65449.69;;;28.32;78.82
7832;BME280;3961;42.058;25.586;2023-05-31T09:31:43;65506.78;;;28.82;76.73
7832;BME280;3961;42.058;25.586;2023-05-31T09:34:26;65572.53;;;29.36;75.95
7832;BME280;3961;42.058;25.586;2023-05-31T09:36:52;65511.50;;;28.86;75.19
7832;BME280;3961;42.058;25.586;2023-05-31T09:39:22;65503.84;;;28.79;76.40
7832;BME280;3961;42.058;25.586;2023-05-31T09:41:49;65517.41;;;28.91;73.78
7832;BME280;3961;42.058;25.586;2023-05-31T09:44:16;65473.00;;;28.50;73.81
7832;BME280;3961;42.058;25.586;2023-05-31T09:46:44;65487.72;;;28.63;77.48
7832;BME280;3961;42.058;25.586;2023-05-31T09:49:10;65517.59;;;28.93;72.73
7832;BME280;3961;42.058;25.586;2023-05-31T09:51:36;65573.72;;;29.37;72.00
7832;BME280;3961;42.058;25.586;2023-05-31T09:54:09;65596.31;;;29.59;74.14
7832;BME280;3961;42.058;25.586;2023-05-31T09:56:37;65629.34;;;29.87;71.18
7832;BME280;3961;42.058;25.586;2023-05-31T09:59:03;65585.94;;;29.52;67.82
7832;BME280;3961;42.058;25.586;2023-05-31T10:01:30;65609.66;;;29.68;67.13
7832;BME280;3961;42.058;25.586;2023-05-31T10:03:56;65516.59;;;28.88;66.68
7832;BME280;3961;42.058;25.586;2023-05-31T10:06:25;65460.06;;;28.39;67.24
7832;BME280;3961;42.058;25.586;2023-05-31T10:08:51;65455.56;;;28.37;66.06
7832;BME280;3961;42.058;25.586;2023-05-31T10:11:19;65531.13;;;29.05;65.38
7832;BME280;3961;42.058;25.586;2023-05-31T10:13:49;65540.72;;;29.08;65.66
7832;BME280;3961;42.058;25.586;2023-05-31T10:16:16;65402.75;;;27.87;67.69
7832;BME280;3961;42.058;25.586;2023-05-31T10:18:44;65354.13;;;27.48;69.42
7832;BME280;3961;42.058;25.586;2023-05-31T10:21:19;65361.41;;;27.56;71.58
7832;BME280;3961;42.058;25.586;2023-05-31T10:23:57;65406.69;;;27.95;67.47
7832;BME280;3961;42.058;25.586;2023-05-31T10:26:35;65398.88;;;27.86;62.31
7832;BME280;3961;42.058;25.586;2023-05-31T10:29:13;65359.44;;;27.52;61.18
7832;BME280;3961;42.058;25.586;2023-05-31T10:31:46;65374.16;;;27.65;63.94
7832;BME280;3961;42.058;25.586;2023-05-31T10:34:24;65427.47;;;28.08;61.10
7832;BME280;3961;42.058;25.586;2023-05-31T10:36:54;65352.00;;;27.48;60.28
7832;BME280;3961;42.058;25.586;2023-05-31T10:39:33;65348.47;;;27.45;59.51
7832;BME280;3961;42.058;25.586;2023-05-31T10:42:12;65311.06;;;27.15;58.16
7832;BME280;3961;42.058;25.586;2023-05-31T10:44:50;65373.19;;;27.66;57.69
7832;BME280;3961;42.058;25.586;2023-05-31T10:47:24;65423.41;;;28.12;57.04
7832;BME280;3961;42.058;25.586;2023-05-31T10:49:52;65462.41;;;28.41;54.62
7832;BME280;3961;42.058;25.586;2023-05-31T10:52:20;65422.59;;;28.09;54.84
7832;BME280;3961;42.058;25.586;2023-05-31T10:54:46;65405.91;;;27.92;58.58
7832;BME280;3961;42.058;25.586;2023-05-31T10:57:12;65387.91;;;27.79;59.79
7832;BME280;3961;42.058;25.586;2023-05-31T10:59:45;65435.34;;;28.18;59.51
7832;BME280;3961;42.058;25.586;2023-05-31T11:02:11;65446.72;;;28.30;59.56
7832;BME280;3961;42.058;25.586;2023-05-31T11:04:37;65520.72;;;28.91;57.16
7832;BME280;3961;42.058;25.586;2023-05-31T11:07:31;65534.47;;;29.05;55.02
7832;BME280;3961;42.058;25.586;2023-05-31T11:09:58;65458.28;;;28.37;54.88
7832;BME280;3961;42.058;25.586;2023-05-31T11:12:37;65387.31;;;27.79;56.07
7832;BME280;3961;42.058;25.586;2023-05-31T11:15:12;65388.28;;;27.77;55.98
7832;BME280;3961;42.058;25.586;2023-05-31T11:17:56;65451.22;;;28.31;56.04
7832;BME280;3961;42.058;25.586;2023-05-31T11:20:21;65491.09;;;28.70;57.16
7832;BME280;3961;42.058;25.586;2023-05-31T11:25:43;65353.19;;;27.49;58.28
7832;BME280;3961;42.058;25.586;2023-05-31T11:28:09;65397.31;;;27.87;58.58
7832;BME280;3961;42.058;25.586;2023-05-31T11:30:36;65382.97;;;27.72;56.96
7832;BME280;3961;42.058;25.586;2023-05-31T11:33:10;65380.84;;;27.73;56.16
7832;BME280;3961;42.058;25.586;2023-05-31T11:35:39;65406.69;;;27.95;56.59
7832;BME280;3961;42.058;25.586;2023-05-31T11:38:05;65387.09;;;27.76;57.48
7832;BME280;3961;42.058;25.586;2023-05-31T11:40:32;65402.97;;;27.90;57.57
7832;BME280;3961;42.058;25.586;2023-05-31T11:43:05;65418.25;;;28.03;58.62
7832;BME280;3961;42.058;25.586;2023-05-31T11:45:32;65432.81;;;28.20;56.59
7832;BME280;3961;42.058;25.586;2023-05-31T11:48:11;65414.94;;;28.02;56.66
7832;BME280;3961;42.058;25.586;2023-05-31T11:50:41;65416.72;;;28.04;57.95
7832;BME280;3961;42.058;25.586;2023-05-31T11:53:10;65437.09;;;28.19;58.27
7832;BME280;3961;42.058;25.586;2023-05-31T11:55:37;65369.47;;;27.61;56.53
7832;BME280;3961;42.058;25.586;2023-05-31T11:58:05;65418.09;;;28.07;56.61
7832;BME280;3961;42.058;25.586;2023-05-31T12:00:32;65409.84;;;27.93;56.45
7832;BME280;3961;42.058;25.586;2023-05-31T12:02:58;65390.03;;;27.79;57.89
7832;BME280;3961;42.058;25.586;2023-05-31T12:05:25;65372.59;;;27.66;56.61
7832;BME280;3961;42.058;25.586;2023-05-31T12:07:53;65384.94;;;27.76;54.78
7832;BME280;3961;42.058;25.586;2023-05-31T12:10:19;65398.28;;;27.86;58.04
7832;BME280;3961;42.058;25.586;2023-05-31T12:12:48;65451.44;;;28.34;56.77
7832;BME280;3961;42.058;25.586;2023-05-31T12:15:15;65494.56;;;28.66;56.17
7832;BME280;3961;42.058;25.586;2023-05-31T12:17:41;65484.56;;;28.58;56.03
7832;BME280;3961;42.058;25.586;2023-05-31T12:20:07;65441.63;;;28.21;54.79
7832;BME280;3961;42.058;25.586;2023-05-31T12:22:34;65441.66;;;28.28;56.61
7832;BME280;3961;42.058;25.586;2023-05-31T12:25:00;65456.53;;;28.36;56.00
7832;BME280;3961;42.058;25.586;2023-05-31T12:27:27;65409.63;;;27.91;57.09
7832;BME280;3961;42.058;25.586;2023-05-31T12:29:58;65399.66;;;27.89;56.86
7832;BME280;3961;42.058;25.586;2023-05-31T12:32:26;65416.13;;;28.03;55.54
7832;BME280;3961;42.058;25.586;2023-05-31T12:35:07;65395.91;;;27.84;57.69
7832;BME280;3961;42.058;25.586;2023-05-31T12:37:36;65381.78;;;27.71;55.13
7832;BME280;3961;42.058;25.586;2023-05-31T12:40:12;65363.78;;;27.58;57.27
7832;BME280;3961;42.058;25.586;2023-05-31T12:42:39;65382.00;;;27.74;57.02
7832;BME280;3961;42.058;25.586;2023-05-31T12:45:05;65368.09;;;27.64;57.65
7832;BME280;3961;42.058;25.586;2023-05-31T12:47:35;65390.25;;;27.81;59.14
7832;BME280;3961;42.058;25.586;2023-05-31T12:50:02;65385.53;;;27.77;60.75
7832;BME280;3961;42.058;25.586;2023-05-31T12:52:32;65357.66;;;27.51;56.22
7832;BME280;3961;42.058;25.586;2023-05-31T12:54:58;65335.53;;;27.34;55.18
7832;BME280;3961;42.058;25.586;2023-05-31T12:57:24;65334.16;;;27.30;55.99
7832;BME280;3961;42.058;25.586;2023-05-31T13:00:04;65380.84;;;27.73;57.15
7832;BME280;3961;42.058;25.586;2023-05-31T13:02:48;65377.31;;;27.70;55.43
7832;BME280;3961;42.058;25.586;2023-05-31T13:05:15;65393.41;;;27.86;55.35
7832;BME280;3961;42.058;25.586;2023-05-31T13:07:41;65414.13;;;27.99;52.39
7832;BME280;3961;42.058;25.586;2023-05-31T13:10:06;65416.88;;;27.99;51.92
7832;BME280;3961;42.058;25.586;2023-05-31T13:12:33;65416.72;;;28.04;49.00
7832;BME280;3961;42.058;25.586;2023-05-31T13:14:58;65384.56;;;27.79;45.82
7832;BME280;3961;42.058;25.586;2023-05-31T13:17:24;65389.66;;;27.81;47.67
7832;BME280;3961;42.058;25.586;2023-05-31T13:19:49;65402.41;;;27.89;48.73
7832;BME280;3961;42.058;25.586;2023-05-31T13:22:15;65408.25;;;27.94;49.21
7832;BME280;3961;42.058;25.586;2023-05-31T13:24:40;65408.84;;;27.95;48.87
7832;BME280;3961;42.058;25.586;2023-05-31T13:27:06;65439.31;;;28.26;47.93